sensor_id;sensor_type;location;lat;lon;timestamp;P1;durP1;ratioP1;P2;durP2;ratioP2
5682;SDS011;2864;49.220;8.654;2022-09-09T00:18:27;9.67;;;2.90;;
5682;SDS011;2864;49.220;8.654;2022-09-09T00:23:32;5.03;;;2.73;;
5682;SDS011;2864;49.220;8.654;2022-09-09T00:28:44;6.17;;;2.80;;
5682;SDS011;2864;49.220;8.654;2022-09-09T00:31:19;7.00;;;2.50;;
5682;SDS011;2864;49.220;8.654;2022-09-09T00:33:51;5.90;;;2.90;;
5682;SDS011;2864;49.220;8.654;2022-09-09T00:36:19;5.73;;;2.33;;
5682;SDS011;2864;49.220;8.654;2022-09-09T00:38:52;3.97;;;2.57;;
5682;SDS011;2864;49.220;8.654;2022-09-09T00:58:50;3.97;;;2.10;;
5682;SDS011;2864;49.220;8.654;2022-09-09T01:01:24;3.57;;;2.30;;
5682;SDS011;2864;49.220;8.654;2022-09-09T01:03:53;7.97;;;2.67;;
5682;SDS011;2864;49.220;8.654;2022-09-09T01:06:34;7.93;;;2.10;;
5682;SDS011;2864;49.220;8.654;2022-09-09T01:11:33;7.83;;;2.33;;
5682;SDS011;2864;49.220;8.654;2022-09-09T01:14:24;4.97;;;2.10;;
5682;SDS011;2864;49.220;8.654;2022-09-09T01:17:24;3.50;;;2.00;;
5682;SDS011;2864;49.220;8.654;2022-09-09T01:28:10;4.47;;;2.30;;
5682;SDS011;2864;49.220;8.654;2022-09-09T01:30:41;4.37;;;2.10;;
5682;SDS011;2864;49.220;8.654;2022-09-09T01:33:07;4.70;;;2.20;;
5682;SDS011;2864;49.220;8.654;2022-09-09T01:35:54;4.93;;;1.80;;
5682;SDS011;2864;49.220;8.654;2022-09-09T01:38:28;3.77;;;1.77;;
5682;SDS011;2864;49.220;8.654;2022-09-09T01:40:55;5.00;;;2.27;;
5682;SDS011;2864;49.220;8.654;2022-09-09T01:43:21;4.23;;;1.90;;
5682;SDS011;2864;49.220;8.654;2022-09-09T01:45:49;4.87;;;1.90;;
5682;SDS011;2864;49.220;8.654;2022-09-09T01:48:19;6.67;;;2.13;;
5682;SDS011;2864;49.220;8.654;2022-09-09T01:54:09;5.67;;;2.00;;
5682;SDS011;2864;49.220;8.654;2022-09-09T02:04:47;9.33;;;2.30;;
5682;SDS011;2864;49.220;8.654;2022-09-09T02:07:35;7.10;;;2.17;;
5682;SDS011;2864;49.220;8.654;2022-09-09T02:10:11;5.17;;;2.07;;
5682;SDS011;2864;49.220;8.654;2022-09-09T02:13:10;5.17;;;1.73;;
5682;SDS011;2864;49.220;8.654;2022-09-09T02:18:10;4.83;;;2.00;;
5682;SDS011;2864;49.220;8.654;2022-09-09T02:20:39;4.97;;;1.90;;
5682;SDS011;2864;49.220;8.654;2022-09-09T02:23:06;5.40;;;1.90;;
5682;SDS011;2864;49.220;8.654;2022-09-09T02:25:33;5.93;;;2.00;;
5682;SDS011;2864;49.220;8.654;2022-09-09T02:28:01;4.40;;;1.93;;
5682;SDS011;2864;49.220;8.654;2022-09-09T02:30:29;5.83;;;1.80;;
5682;SDS011;2864;49.220;8.654;2022-09-09T02:32:59;2.73;;;1.57;;
5682;SDS011;2864;49.220;8.654;2022-09-09T02:35:27;3.53;;;1.77;;
5682;SDS011;2864;49.220;8.654;2022-09-09T02:37:56;5.70;;;2.00;;
5682;SDS011;2864;49.220;8.654;2022-09-09T02:40:26;4.30;;;1.50;;
5682;SDS011;2864;49.220;8.654;2022-09-09T02:42:53;6.07;;;2.03;;
5682;SDS011;2864;49.220;8.654;2022-09-09T02:45:20;5.33;;;1.73;;
5682;SDS011;2864;49.220;8.654;2022-09-09T02:47:51;2.73;;;1.70;;
5682;SDS011;2864;49.220;8.654;2022-09-09T02:50:22;2.93;;;1.70;;
5682;SDS011;2864;49.220;8.654;2022-09-09T02:58:27;3.37;;;1.60;;
5682;SDS011;2864;49.220;8.654;2022-09-09T03:00:53;3.83;;;1.83;;
5682;SDS011;2864;49.220;8.654;2022-09-09T03:03:19;4.17;;;1.80;;
5682;SDS011;2864;49.220;8.654;2022-09-09T03:05:46;3.73;;;1.97;;
5682;SDS011;2864;49.220;8.654;2022-09-09T03:08:12;4.97;;;2.00;;
5682;SDS011;2864;49.220;8.654;2022-09-09T03:10:38;3.57;;;1.97;;
5682;SDS011;2864;49.220;8.654;2022-09-09T03:13:04;5.90;;;2.17;;
5682;SDS011;2864;49.220;8.654;2022-09-09T03:15:33;4.23;;;2.00;;
5682;SDS011;2864;49.220;8.654;2022-09-09T03:17:59;3.23;;;1.63;;
5682;SDS011;2864;49.220;8.654;2022-09-09T03:20:27;6.60;;;1.93;;
5682;SDS011;2864;49.220;8.654;2022-09-09T03:22:54;4.40;;;1.70;;
5682;SDS011;2864;49.220;8.654;2022-09-09T03:25:20;3.47;;;1.50;;
5682;SDS011;2864;49.220;8.654;2022-09-09T03:27:51;4.63;;;1.67;;
5682;SDS011;2864;49.220;8.654;2022-09-09T03:30:20;4.23;;;1.87;;
5682;SDS011;2864;49.220;8.654;2022-09-09T03:32:46;3.20;;;1.80;;
5682;SDS011;2864;49.220;8.654;2022-09-09T03:35:13;2.73;;;1.50;;
5682;SDS011;2864;49.220;8.654;2022-09-09T03:37:38;3.20;;;1.60;;
5682;SDS011;2864;49.220;8.654;2022-09-09T03:40:05;3.60;;;1.57;;
5682;SDS011;2864;49.220;8.654;2022-09-09T03:42:36;4.37;;;1.80;;
5682;SDS011;2864;49.220;8.654;2022-09-09T03:45:03;3.73;;;1.60;;
5682;SDS011;2864;49.220;8.654;2022-09-09T03:47:29;9.17;;;1.77;;
5682;SDS011;2864;49.220;8.654;2022-09-09T03:49:55;3.40;;;1.50;;
5682;SDS011;2864;49.220;8.654;2022-09-09T03:52:21;5.33;;;1.70;;
5682;SDS011;2864;49.220;8.654;2022-09-09T03:54:49;3.10;;;1.47;;
5682;SDS011;2864;49.220;8.654;2022-09-09T03:57:16;4.77;;;1.60;;
5682;SDS011;2864;49.220;8.654;2022-09-09T03:59:42;4.80;;;1.80;;
5682;SDS011;2864;49.220;8.654;2022-09-09T04:02:08;2.67;;;1.70;;
5682;SDS011;2864;49.220;8.654;2022-09-09T04:04:34;3.63;;;1.70;;
5682;SDS011;2864;49.220;8.654;2022-09-09T04:07:00;3.87;;;1.70;;
5682;SDS011;2864;49.220;8.654;2022-09-09T04:09:26;4.70;;;1.67;;
5682;SDS011;2864;49.220;8.654;2022-09-09T04:11:52;5.17;;;1.67;;
5682;SDS011;2864;49.220;8.654;2022-09-09T04:14:18;7.43;;;1.80;;
5682;SDS011;2864;49.220;8.654;2022-09-09T04:16:44;3.43;;;1.43;;
5682;SDS011;2864;49.220;8.654;2022-09-09T04:19:11;3.30;;;1.50;;
5682;SDS011;2864;49.220;8.654;2022-09-09T04:21:38;4.07;;;1.80;;
5682;SDS011;2864;49.220;8.654;2022-09-09T04:24:05;3.33;;;1.73;;
5682;SDS011;2864;49.220;8.654;2022-09-09T04:26:31;4.50;;;1.70;;
5682;SDS011;2864;49.220;8.654;2022-09-09T04:28:57;4.93;;;1.77;;
5682;SDS011;2864;49.220;8.654;2022-09-09T04:31:23;3.17;;;1.60;;
5682;SDS011;2864;49.220;8.654;2022-09-09T04:33:49;4.63;;;1.73;;
5682;SDS011;2864;49.220;8.654;2022-09-09T04:36:15;4.50;;;1.73;;
5682;SDS011;2864;49.220;8.654;2022-09-09T04:38:43;5.07;;;1.53;;
5682;SDS011;2864;49.220;8.654;2022-09-09T04:41:09;6.30;;;4.60;;
5682;SDS011;2864;49.220;8.654;2022-09-09T04:43:36;5.93;;;2.40;;
5682;SDS011;2864;49.220;8.654;2022-09-09T04:46:02;5.57;;;1.80;;
5682;SDS011;2864;49.220;8.654;2022-09-09T04:48:28;2.30;;;1.53;;
5682;SDS011;2864;49.220;8.654;2022-09-09T04:53:26;3.73;;;1.47;;
5682;SDS011;2864;49.220;8.654;2022-09-09T04:55:52;3.83;;;1.60;;
5682;SDS011;2864;49.220;8.654;2022-09-09T04:58:26;4.43;;;2.00;;
5682;SDS011;2864;49.220;8.654;2022-09-09T05:00:52;3.40;;;1.80;;
5682;SDS011;2864;49.220;8.654;2022-09-09T05:03:17;3.37;;;1.50;;
5682;SDS011;2864;49.220;8.654;2022-09-09T05:05:44;3.77;;;1.70;;
5682;SDS011;2864;49.220;8.654;2022-09-09T05:08:10;2.93;;;1.70;;
5682;SDS011;2864;49.220;8.654;2022-09-09T05:10:36;4.70;;;1.83;;
5682;SDS011;2864;49.220;8.654;2022-09-09T05:13:03;3.90;;;2.10;;
5682;SDS011;2864;49.220;8.654;2022-09-09T05:15:29;5.70;;;1.67;;
5682;SDS011;2864;49.220;8.654;2022-09-09T05:17:58;4.23;;;1.97;;
5682;SDS011;2864;49.220;8.654;2022-09-09T05:20:25;2.20;;;1.40;;
5682;SDS011;2864;49.220;8.654;2022-09-09T05:22:54;5.10;;;1.70;;
5682;SDS011;2864;49.220;8.654;2022-09-09T05:25:21;2.83;;;1.40;;
5682;SDS011;2864;49.220;8.654;2022-09-09T05:27:47;4.30;;;1.50;;
5682;SDS011;2864;49.220;8.654;2022-09-09T05:30:13;3.53;;;1.50;;
5682;SDS011;2864;49.220;8.654;2022-09-09T05:32:38;4.47;;;1.50;;
5682;SDS011;2864;49.220;8.654;2022-09-09T05:35:05;5.17;;;2.37;;
5682;SDS011;2864;49.220;8.654;2022-09-09T05:37:31;2.10;;;1.47;;
5682;SDS011;2864;49.220;8.654;2022-09-09T05:39:56;5.23;;;1.53;;
5682;SDS011;2864;49.220;8.654;2022-09-09T05:42:23;3.10;;;1.50;;
5682;SDS011;2864;49.220;8.654;2022-09-09T05:44:48;5.17;;;1.50;;
5682;SDS011;2864;49.220;8.654;2022-09-09T05:47:15;2.57;;;1.30;;
5682;SDS011;2864;49.220;8.654;2022-09-09T05:49:42;3.93;;;1.67;;
5682;SDS011;2864;49.220;8.654;2022-09-09T05:52:07;2.57;;;1.30;;
5682;SDS011;2864;49.220;8.654;2022-09-09T05:54:34;2.97;;;1.40;;
5682;SDS011;2864;49.220;8.654;2022-09-09T05:57:02;2.63;;;1.30;;
5682;SDS011;2864;49.220;8.654;2022-09-09T05:59:28;3.33;;;1.50;;
5682;SDS011;2864;49.220;8.654;2022-09-09T06:01:54;4.60;;;1.30;;
5682;SDS011;2864;49.220;8.654;2022-09-09T06:04:19;3.70;;;1.23;;
5682;SDS011;2864;49.220;8.654;2022-09-09T06:06:47;3.73;;;1.50;;
5682;SDS011;2864;49.220;8.654;2022-09-09T06:09:13;3.50;;;1.70;;
5682;SDS011;2864;49.220;8.654;2022-09-09T06:11:40;3.13;;;1.37;;
5682;SDS011;2864;49.220;8.654;2022-09-09T06:14:07;5.50;;;1.50;;
5682;SDS011;2864;49.220;8.654;2022-09-09T06:16:33;3.83;;;1.30;;
5682;SDS011;2864;49.220;8.654;2022-09-09T06:18:59;3.67;;;1.20;;
5682;SDS011;2864;49.220;8.654;2022-09-09T06:21:29;2.90;;;1.40;;
5682;SDS011;2864;49.220;8.654;2022-09-09T06:24:01;3.20;;;1.63;;
5682;SDS011;2864;49.220;8.654;2022-09-09T06:26:32;4.97;;;1.40;;
5682;SDS011;2864;49.220;8.654;2022-09-09T06:28:59;2.97;;;1.30;;
5682;SDS011;2864;49.220;8.654;2022-09-09T06:31:27;2.57;;;1.43;;
5682;SDS011;2864;49.220;8.654;2022-09-09T06:33:57;2.77;;;1.40;;
5682;SDS011;2864;49.220;8.654;2022-09-09T06:38:50;3.77;;;1.30;;
5682;SDS011;2864;49.220;8.654;2022-09-09T06:41:18;3.63;;;1.37;;
5682;SDS011;2864;49.220;8.654;2022-09-09T06:43:45;5.97;;;1.50;;
5682;SDS011;2864;49.220;8.654;2022-09-09T06:48:39;4.53;;;1.70;;
5682;SDS011;2864;49.220;8.654;2022-09-09T06:51:10;5.67;;;1.57;;
5682;SDS011;2864;49.220;8.654;2022-09-09T06:53:46;6.83;;;1.67;;
5682;SDS011;2864;49.220;8.654;2022-09-09T06:56:19;3.00;;;1.30;;
5682;SDS011;2864;49.220;8.654;2022-09-09T06:58:48;7.87;;;1.60;;
5682;SDS011;2864;49.220;8.654;2022-09-09T07:01:15;5.37;;;1.60;;
5682;SDS011;2864;49.220;8.654;2022-09-09T07:03:42;3.57;;;1.43;;
5682;SDS011;2864;49.220;8.654;2022-09-09T07:06:16;5.70;;;1.70;;
5682;SDS011;2864;49.220;8.654;2022-09-09T07:08:53;3.50;;;1.53;;
5682;SDS011;2864;49.220;8.654;2022-09-09T07:11:20;5.07;;;1.77;;
5682;SDS011;2864;49.220;8.654;2022-09-09T07:13:47;3.63;;;1.50;;
5682;SDS011;2864;49.220;8.654;2022-09-09T07:16:18;6.17;;;1.47;;
5682;SDS011;2864;49.220;8.654;2022-09-09T07:18:45;8.10;;;1.70;;
5682;SDS011;2864;49.220;8.654;2022-09-09T07:21:11;7.77;;;1.43;;
5682;SDS011;2864;49.220;8.654;2022-09-09T07:23:38;5.13;;;1.67;;
5682;SDS011;2864;49.220;8.654;2022-09-09T07:26:12;6.07;;;1.67;;
5682;SDS011;2864;49.220;8.654;2022-09-09T07:28:42;5.00;;;1.70;;
5682;SDS011;2864;49.220;8.654;2022-09-09T07:31:14;6.40;;;1.73;;
5682;SDS011;2864;49.220;8.654;2022-09-09T07:33:42;5.80;;;1.47;;
5682;SDS011;2864;49.220;8.654;2022-09-09T07:38:45;5.23;;;1.60;;
5682;SDS011;2864;49.220;8.654;2022-09-09T07:41:16;7.73;;;1.70;;
5682;SDS011;2864;49.220;8.654;2022-09-09T07:43:53;8.57;;;1.60;;
5682;SDS011;2864;49.220;8.654;2022-09-09T07:46:20;5.37;;;1.93;;
5682;SDS011;2864;49.220;8.654;2022-09-09T07:48:49;4.93;;;1.50;;
5682;SDS011;2864;49.220;8.654;2022-09-09T07:51:18;5.70;;;1.83;;
5682;SDS011;2864;49.220;8.654;2022-09-09T07:53:47;7.60;;;1.73;;
5682;SDS011;2864;49.220;8.654;2022-09-09T07:56:15;4.13;;;1.60;;
5682;SDS011;2864;49.220;8.654;2022-09-09T07:58:42;4.00;;;1.63;;
5682;SDS011;2864;49.220;8.654;2022-09-09T08:01:11;4.87;;;1.80;;
5682;SDS011;2864;49.220;8.654;2022-09-09T08:03:39;3.33;;;1.60;;
5682;SDS011;2864;49.220;8.654;2022-09-09T08:06:06;5.07;;;1.60;;
5682;SDS011;2864;49.220;8.654;2022-09-09T08:08:33;4.00;;;1.53;;
5682;SDS011;2864;49.220;8.654;2022-09-09T08:11:03;6.93;;;1.60;;
5682;SDS011;2864;49.220;8.654;2022-09-09T08:13:40;2.93;;;1.40;;
5682;SDS011;2864;49.220;8.654;2022-09-09T08:16:11;3.87;;;1.63;;
5682;SDS011;2864;49.220;8.654;2022-09-09T08:18:39;4.13;;;1.63;;
5682;SDS011;2864;49.220;8.654;2022-09-09T08:21:14;4.27;;;1.73;;
5682;SDS011;2864;49.220;8.654;2022-09-09T08:23:55;2.50;;;1.50;;
5682;SDS011;2864;49.220;8.654;2022-09-09T08:26:26;4.83;;;1.60;;
5682;SDS011;2864;49.220;8.654;2022-09-09T08:28:57;5.57;;;1.97;;
5682;SDS011;2864;49.220;8.654;2022-09-09T08:31:31;2.80;;;1.40;;
5682;SDS011;2864;49.220;8.654;2022-09-09T08:34:06;2.73;;;1.43;;
5682;SDS011;2864;49.220;8.654;2022-09-09T08:36:45;4.40;;;1.67;;
5682;SDS011;2864;49.220;8.654;2022-09-09T08:39:15;6.13;;;1.77;;
5682;SDS011;2864;49.220;8.654;2022-09-09T08:55:51;5.87;;;1.70;;
5682;SDS011;2864;49.220;8.654;2022-09-09T08:58:24;2.63;;;1.47;;
5682;SDS011;2864;49.220;8.654;2022-09-09T09:12:01;5.20;;;1.60;;
5682;SDS011;2864;49.220;8.654;2022-09-09T09:14:48;3.83;;;1.80;;
5682;SDS011;2864;49.220;8.654;2022-09-09T09:17:16;5.23;;;1.80;;
5682;SDS011;2864;49.220;8.654;2022-09-09T09:19:44;4.27;;;1.60;;
5682;SDS011;2864;49.220;8.654;2022-09-09T09:25:09;5.30;;;1.60;;
5682;SDS011;2864;49.220;8.654;2022-09-09T09:27:49;4.40;;;1.60;;
5682;SDS011;2864;49.220;8.654;2022-09-09T09:30:26;5.90;;;1.77;;
5682;SDS011;2864;49.220;8.654;2022-09-09T09:33:00;7.00;;;1.60;;
5682;SDS011;2864;49.220;8.654;2022-09-09T09:35:33;5.80;;;1.53;;
5682;SDS011;2864;49.220;8.654;2022-09-09T09:37:59;4.20;;;1.73;;
5682;SDS011;2864;49.220;8.654;2022-09-09T09:40:26;5.30;;;1.50;;
5682;SDS011;2864;49.220;8.654;2022-09-09T09:42:53;4.03;;;1.43;;
5682;SDS011;2864;49.220;8.654;2022-09-09T09:48:03;3.50;;;1.57;;
5682;SDS011;2864;49.220;8.654;2022-09-09T09:50:30;5.67;;;1.63;;
5682;SDS011;2864;49.220;8.654;2022-09-09T09:52:58;5.77;;;1.50;;
5682;SDS011;2864;49.220;8.654;2022-09-09T09:55:26;5.27;;;2.03;;
5682;SDS011;2864;49.220;8.654;2022-09-09T09:58:05;8.23;;;1.60;;
5682;SDS011;2864;49.220;8.654;2022-09-09T10:00:46;4.63;;;1.60;;
5682;SDS011;2864;49.220;8.654;2022-09-09T10:03:24;5.83;;;1.60;;
5682;SDS011;2864;49.220;8.654;2022-09-09T10:05:53;4.83;;;1.90;;
5682;SDS011;2864;49.220;8.654;2022-09-09T10:08:21;6.97;;;1.77;;
5682;SDS011;2864;49.220;8.654;2022-09-09T10:13:28;4.80;;;1.50;;
5682;SDS011;2864;49.220;8.654;2022-09-09T10:19:15;5.17;;;1.80;;
5682;SDS011;2864;49.220;8.654;2022-09-09T10:21:48;3.30;;;1.47;;
5682;SDS011;2864;49.220;8.654;2022-09-09T10:35:35;3.80;;;1.70;;
5682;SDS011;2864;49.220;8.654;2022-09-09T10:38:16;5.50;;;1.60;;
5682;SDS011;2864;49.220;8.654;2022-09-09T10:41:13;5.13;;;1.60;;
5682;SDS011;2864;49.220;8.654;2022-09-09T10:44:00;5.10;;;1.60;;
5682;SDS011;2864;49.220;8.654;2022-09-09T10:55:19;5.87;;;1.80;;
5682;SDS011;2864;49.220;8.654;2022-09-09T10:57:50;2.83;;;1.40;;
5682;SDS011;2864;49.220;8.654;2022-09-09T11:00:20;6.57;;;1.70;;
5682;SDS011;2864;49.220;8.654;2022-09-09T11:02:52;5.23;;;1.80;;
5682;SDS011;2864;49.220;8.654;2022-09-09T11:05:31;4.57;;;1.50;;
5682;SDS011;2864;49.220;8.654;2022-09-09T11:08:10;5.63;;;2.00;;
5682;SDS011;2864;49.220;8.654;2022-09-09T11:16:33;5.50;;;1.60;;
5682;SDS011;2864;49.220;8.654;2022-09-09T11:19:19;3.40;;;1.77;;
5682;SDS011;2864;49.220;8.654;2022-09-09T11:21:53;5.53;;;1.50;;
5682;SDS011;2864;49.220;8.654;2022-09-09T11:40:36;3.97;;;1.37;;
5682;SDS011;2864;49.220;8.654;2022-09-09T11:45:39;3.93;;;1.60;;
5682;SDS011;2864;49.220;8.654;2022-09-09T11:48:22;2.83;;;1.20;;
5682;SDS011;2864;49.220;8.654;2022-09-09T11:50:57;3.87;;;1.40;;
5682;SDS011;2864;49.220;8.654;2022-09-09T11:53:28;2.73;;;1.30;;
5682;SDS011;2864;49.220;8.654;2022-09-09T11:56:10;4.70;;;1.30;;
5682;SDS011;2864;49.220;8.654;2022-09-09T11:58:39;3.63;;;1.50;;
5682;SDS011;2864;49.220;8.654;2022-09-09T12:01:29;4.90;;;1.60;;
5682;SDS011;2864;49.220;8.654;2022-09-09T12:06:43;5.07;;;1.30;;
5682;SDS011;2864;49.220;8.654;2022-09-09T12:19:47;3.13;;;1.60;;
5682;SDS011;2864;49.220;8.654;2022-09-09T12:22:32;4.80;;;1.57;;
5682;SDS011;2864;49.220;8.654;2022-09-09T12:25:30;4.00;;;1.43;;
5682;SDS011;2864;49.220;8.654;2022-09-09T12:28:18;3.43;;;1.37;;
5682;SDS011;2864;49.220;8.654;2022-09-09T12:30:58;3.80;;;1.37;;
5682;SDS011;2864;49.220;8.654;2022-09-09T12:33:33;3.80;;;1.50;;
5682;SDS011;2864;49.220;8.654;2022-09-09T12:36:10;3.03;;;1.40;;
5682;SDS011;2864;49.220;8.654;2022-09-09T12:38:41;5.43;;;1.60;;
5682;SDS011;2864;49.220;8.654;2022-09-09T12:41:17;3.97;;;1.70;;
5682;SDS011;2864;49.220;8.654;2022-09-09T12:44:03;5.67;;;1.53;;
5682;SDS011;2864;49.220;8.654;2022-09-09T12:46:35;3.40;;;1.50;;
5682;SDS011;2864;49.220;8.654;2022-09-09T12:49:04;4.80;;;1.47;;
5682;SDS011;2864;49.220;8.654;2022-09-09T12:51:31;4.03;;;1.73;;
5682;SDS011;2864;49.220;8.654;2022-09-09T12:53:58;6.97;;;1.80;;
5682;SDS011;2864;49.220;8.654;2022-09-09T12:56:26;3.60;;;1.50;;
5682;SDS011;2864;49.220;8.654;2022-09-09T12:58:57;3.53;;;1.10;;
5682;SDS011;2864;49.220;8.654;2022-09-09T13:01:25;3.77;;;1.50;;
5682;SDS011;2864;49.220;8.654;2022-09-09T13:04:00;4.83;;;1.53;;
5682;SDS011;2864;49.220;8.654;2022-09-09T13:06:27;5.27;;;1.50;;
5682;SDS011;2864;49.220;8.654;2022-09-09T13:08:55;4.60;;;1.50;;
5682;SDS011;2864;49.220;8.654;2022-09-09T13:13:56;4.03;;;1.30;;
5682;SDS011;2864;49.220;8.654;2022-09-09T13:16:25;6.90;;;1.40;;
5682;SDS011;2864;49.220;8.654;2022-09-09T13:18:57;4.83;;;1.60;;
5682;SDS011;2864;49.220;8.654;2022-09-09T13:21:34;5.20;;;1.90;;
5682;SDS011;2864;49.220;8.654;2022-09-09T13:24:03;3.97;;;1.70;;
5682;SDS011;2864;49.220;8.654;2022-09-09T13:26:59;6.53;;;2.20;;
5682;SDS011;2864;49.220;8.654;2022-09-09T13:29:27;6.50;;;1.80;;
5682;SDS011;2864;49.220;8.654;2022-09-09T13:31:53;4.33;;;1.30;;
5682;SDS011;2864;49.220;8.654;2022-09-09T13:34:29;2.60;;;1.27;;
5682;SDS011;2864;49.220;8.654;2022-09-09T13:36:59;2.40;;;1.40;;
5682;SDS011;2864;49.220;8.654;2022-09-09T13:39:33;4.37;;;1.70;;
5682;SDS011;2864;49.220;8.654;2022-09-09T13:42:01;5.00;;;1.90;;
5682;SDS011;2864;49.220;8.654;2022-09-09T13:44:36;6.30;;;1.70;;
5682;SDS011;2864;49.220;8.654;2022-09-09T13:47:18;5.67;;;1.40;;
5682;SDS011;2864;49.220;8.654;2022-09-09T13:49:45;2.20;;;1.60;;
5682;SDS011;2864;49.220;8.654;2022-09-09T13:52:18;4.87;;;1.20;;
5682;SDS011;2864;49.220;8.654;2022-09-09T13:54:47;3.63;;;1.30;;
5682;SDS011;2864;49.220;8.654;2022-09-09T13:57:19;2.47;;;1.60;;
5682;SDS011;2864;49.220;8.654;2022-09-09T13:59:47;3.33;;;1.30;;
5682;SDS011;2864;49.220;8.654;2022-09-09T14:02:20;2.23;;;1.40;;
5682;SDS011;2864;49.220;8.654;2022-09-09T14:04:48;3.73;;;1.50;;
5682;SDS011;2864;49.220;8.654;2022-09-09T14:07:16;1.83;;;1.20;;
5682;SDS011;2864;49.220;8.654;2022-09-09T14:09:43;2.08;;;0.82;;
5682;SDS011;2864;49.220;8.654;2022-09-09T14:12:09;4.22;;;1.20;;
5682;SDS011;2864;49.220;8.654;2022-09-09T14:14:39;3.65;;;1.15;;
5682;SDS011;2864;49.220;8.654;2022-09-09T14:17:07;4.15;;;1.30;;
5682;SDS011;2864;49.220;8.654;2022-09-09T14:19:32;1.90;;;1.05;;
5682;SDS011;2864;49.220;8.654;2022-09-09T14:22:04;3.20;;;1.23;;
5682;SDS011;2864;49.220;8.654;2022-09-09T14:24:30;2.83;;;1.10;;
5682;SDS011;2864;49.220;8.654;2022-09-09T14:26:55;1.58;;;1.10;;
5682;SDS011;2864;49.220;8.654;2022-09-09T14:29:21;3.22;;;1.30;;
5682;SDS011;2864;49.220;8.654;2022-09-09T14:31:47;2.83;;;1.48;;
5682;SDS011;2864;49.220;8.654;2022-09-09T14:34:12;3.70;;;1.70;;
5682;SDS011;2864;49.220;8.654;2022-09-09T14:36:39;3.63;;;1.40;;
5682;SDS011;2864;49.220;8.654;2022-09-09T14:39:06;3.58;;;1.30;;
5682;SDS011;2864;49.220;8.654;2022-09-09T14:41:32;5.80;;;1.10;;
5682;SDS011;2864;49.220;8.654;2022-09-09T14:44:00;2.25;;;1.13;;
5682;SDS011;2864;49.220;8.654;2022-09-09T14:46:26;4.53;;;1.33;;
5682;SDS011;2864;49.220;8.654;2022-09-09T14:48:51;2.38;;;1.30;;
5682;SDS011;2864;49.220;8.654;2022-09-09T14:51:21;2.67;;;1.30;;
5682;SDS011;2864;49.220;8.654;2022-09-09T14:53:50;4.35;;;1.42;;
5682;SDS011;2864;49.220;8.654;2022-09-09T14:56:21;4.97;;;1.20;;
5682;SDS011;2864;49.220;8.654;2022-09-09T14:58:55;4.18;;;1.40;;
5682;SDS011;2864;49.220;8.654;2022-09-09T15:01:23;4.32;;;1.27;;
5682;SDS011;2864;49.220;8.654;2022-09-09T15:03:58;2.80;;;1.15;;
5682;SDS011;2864;49.220;8.654;2022-09-09T15:06:27;2.87;;;1.20;;
5682;SDS011;2864;49.220;8.654;2022-09-09T15:08:59;1.90;;;1.13;;
5682;SDS011;2864;49.220;8.654;2022-09-09T15:11:26;3.20;;;1.50;;
5682;SDS011;2864;49.220;8.654;2022-09-09T15:13:57;2.60;;;1.13;;
5682;SDS011;2864;49.220;8.654;2022-09-09T15:16:24;2.63;;;1.10;;
5682;SDS011;2864;49.220;8.654;2022-09-09T15:18:51;1.57;;;1.10;;
5682;SDS011;2864;49.220;8.654;2022-09-09T15:21:23;3.40;;;1.03;;
5682;SDS011;2864;49.220;8.654;2022-09-09T15:23:50;2.93;;;1.50;;
5682;SDS011;2864;49.220;8.654;2022-09-09T15:26:16;3.17;;;1.13;;
5682;SDS011;2864;49.220;8.654;2022-09-09T15:28:43;4.90;;;1.43;;
5682;SDS011;2864;49.220;8.654;2022-09-09T15:31:11;2.63;;;1.27;;
5682;SDS011;2864;49.220;8.654;2022-09-09T15:33:51;2.97;;;1.40;;
5682;SDS011;2864;49.220;8.654;2022-09-09T15:36:26;2.73;;;1.17;;
5682;SDS011;2864;49.220;8.654;2022-09-09T15:38:53;3.20;;;1.40;;
5682;SDS011;2864;49.220;8.654;2022-09-09T15:41:20;2.80;;;1.30;;
5682;SDS011;2864;49.220;8.654;2022-09-09T15:43:55;2.63;;;1.30;;
5682;SDS011;2864;49.220;8.654;2022-09-09T15:51:33;3.70;;;1.30;;
5682;SDS011;2864;49.220;8.654;2022-09-09T15:53:58;4.13;;;1.20;;
5682;SDS011;2864;49.220;8.654;2022-09-09T15:56:25;4.77;;;1.27;;
5682;SDS011;2864;49.220;8.654;2022-09-09T15:58:52;5.10;;;1.70;;
5682;SDS011;2864;49.220;8.654;2022-09-09T16:01:20;4.83;;;1.60;;
5682;SDS011;2864;49.220;8.654;2022-09-09T16:03:45;5.50;;;1.35;;
5682;SDS011;2864;49.220;8.654;2022-09-09T16:06:21;3.85;;;1.83;;
5682;SDS011;2864;49.220;8.654;2022-09-09T16:08:49;8.27;;;1.98;;
5682;SDS011;2864;49.220;8.654;2022-09-09T16:11:23;4.10;;;1.90;;
5682;SDS011;2864;49.220;8.654;2022-09-09T16:14:00;4.43;;;1.52;;
5682;SDS011;2864;49.220;8.654;2022-09-09T16:16:27;4.30;;;1.48;;
5682;SDS011;2864;49.220;8.654;2022-09-09T16:18:55;4.38;;;1.70;;
5682;SDS011;2864;49.220;8.654;2022-09-09T16:21:30;2.75;;;1.35;;
5682;SDS011;2864;49.220;8.654;2022-09-09T16:24:00;3.50;;;1.80;;
5682;SDS011;2864;49.220;8.654;2022-09-09T16:26:28;2.50;;;1.27;;
5682;SDS011;2864;49.220;8.654;2022-09-09T16:28:55;5.13;;;1.30;;
5682;SDS011;2864;49.220;8.654;2022-09-09T16:31:23;2.73;;;1.20;;
5682;SDS011;2864;49.220;8.654;2022-09-09T16:33:49;1.97;;;1.33;;
5682;SDS011;2864;49.220;8.654;2022-09-09T16:36:16;3.73;;;1.50;;
5682;SDS011;2864;49.220;8.654;2022-09-09T16:38:44;2.40;;;1.50;;
5682;SDS011;2864;49.220;8.654;2022-09-09T16:41:10;3.80;;;1.40;;
5682;SDS011;2864;49.220;8.654;2022-09-09T16:43:37;3.77;;;1.20;;
5682;SDS011;2864;49.220;8.654;2022-09-09T16:46:10;3.87;;;1.40;;
5682;SDS011;2864;49.220;8.654;2022-09-09T16:48:46;2.63;;;1.40;;
5682;SDS011;2864;49.220;8.654;2022-09-09T16:51:14;3.03;;;1.40;;
5682;SDS011;2864;49.220;8.654;2022-09-09T16:53:41;2.50;;;1.30;;
5682;SDS011;2864;49.220;8.654;2022-09-09T16:56:22;3.70;;;1.50;;
5682;SDS011;2864;49.220;8.654;2022-09-09T16:58:58;3.73;;;1.53;;
5682;SDS011;2864;49.220;8.654;2022-09-09T17:01:31;3.43;;;1.60;;
5682;SDS011;2864;49.220;8.654;2022-09-09T17:04:06;3.37;;;1.90;;
5682;SDS011;2864;49.220;8.654;2022-09-09T17:06:40;4.37;;;1.70;;
5682;SDS011;2864;49.220;8.654;2022-09-09T17:09:09;2.30;;;1.37;;
5682;SDS011;2864;49.220;8.654;2022-09-09T17:11:41;2.13;;;1.13;;
5682;SDS011;2864;49.220;8.654;2022-09-09T17:14:08;4.40;;;1.30;;
5682;SDS011;2864;49.220;8.654;2022-09-09T17:16:47;3.10;;;1.40;;
5682;SDS011;2864;49.220;8.654;2022-09-09T17:19:13;6.17;;;1.63;;
5682;SDS011;2864;49.220;8.654;2022-09-09T17:21:44;2.93;;;1.63;;
5682;SDS011;2864;49.220;8.654;2022-09-09T17:24:33;5.43;;;1.50;;
5682;SDS011;2864;49.220;8.654;2022-09-09T17:26:59;4.60;;;2.23;;
5682;SDS011;2864;49.220;8.654;2022-09-09T17:29:27;6.23;;;2.43;;
5682;SDS011;2864;49.220;8.654;2022-09-09T17:31:52;4.80;;;2.20;;
5682;SDS011;2864;49.220;8.654;2022-09-09T17:34:20;5.20;;;2.10;;
5682;SDS011;2864;49.220;8.654;2022-09-09T17:46:38;6.80;;;2.07;;
5682;SDS011;2864;49.220;8.654;2022-09-09T17:49:31;4.90;;;1.90;;
5682;SDS011;2864;49.220;8.654;2022-09-09T17:52:31;4.40;;;2.00;;
5682;SDS011;2864;49.220;8.654;2022-09-09T17:55:11;3.80;;;1.90;;
5682;SDS011;2864;49.220;8.654;2022-09-09T18:00:44;4.67;;;2.03;;
5682;SDS011;2864;49.220;8.654;2022-09-09T18:03:12;4.13;;;2.23;;
5682;SDS011;2864;49.220;8.654;2022-09-09T18:05:50;4.53;;;2.10;;
5682;SDS011;2864;49.220;8.654;2022-09-09T18:08:28;5.30;;;2.50;;
5682;SDS011;2864;49.220;8.654;2022-09-09T18:11:29;10.67;;;5.90;;
5682;SDS011;2864;49.220;8.654;2022-09-09T18:13:58;9.33;;;4.50;;
5682;SDS011;2864;49.220;8.654;2022-09-09T18:16:30;7.60;;;4.47;;
5682;SDS011;2864;49.220;8.654;2022-09-09T18:18:59;6.90;;;3.43;;
5682;SDS011;2864;49.220;8.654;2022-09-09T18:21:28;6.20;;;2.30;;
5682;SDS011;2864;49.220;8.654;2022-09-09T18:23:59;3.17;;;1.70;;
5682;SDS011;2864;49.220;8.654;2022-09-09T18:26:26;5.57;;;1.97;;
5682;SDS011;2864;49.220;8.654;2022-09-09T18:28:52;4.63;;;2.10;;
5682;SDS011;2864;49.220;8.654;2022-09-09T18:31:21;2.50;;;1.77;;
5682;SDS011;2864;49.220;8.654;2022-09-09T18:33:48;4.33;;;2.00;;
5682;SDS011;2864;49.220;8.654;2022-09-09T18:36:16;3.60;;;2.20;;
5682;SDS011;2864;49.220;8.654;2022-09-09T18:38:43;2.93;;;1.80;;
5682;SDS011;2864;49.220;8.654;2022-09-09T18:41:19;5.03;;;1.83;;
5682;SDS011;2864;49.220;8.654;2022-09-09T18:43:49;3.37;;;2.10;;
5682;SDS011;2864;49.220;8.654;2022-09-09T18:46:17;5.37;;;2.00;;
5682;SDS011;2864;49.220;8.654;2022-09-09T18:48:44;4.07;;;2.37;;
5682;SDS011;2864;49.220;8.654;2022-09-09T18:51:11;3.37;;;1.90;;